createdAt,value
2019-02-17T00:00:30.526Z,40.10
2019-02-17T00:02:59.762Z,42.43
2019-02-17T00:05:28.956Z,37.67
2019-02-17T00:07:58.130Z,45.83
2019-02-17T00:10:27.353Z,37.33
2019-02-17T00:12:56.543Z,38.93
2019-02-17T00:15:25.728Z,44.60
2019-02-17T00:17:55.416Z,40.50
2019-02-17T00:20:24.622Z,41.40
2019-02-17T00:22:53.836Z,39.70
2019-02-17T00:25:23.035Z,39.83
2019-02-17T00:27:52.526Z,47.83
2019-02-17T00:30:21.729Z,37.93
2019-02-17T00:32:50.912Z,39.67
2019-02-17T00:35:20.087Z,41.20
2019-02-17T00:37:49.339Z,36.30
2019-02-17T00:40:18.483Z,37.40
2019-02-17T00:43:05.906Z,37.67
2019-02-17T00:45:53.103Z,35.40
2019-02-17T00:48:22.307Z,36.20
2019-02-17T00:50:51.490Z,36.57
2019-02-17T00:53:20.700Z,32.00
2019-02-17T00:55:49.817Z,34.33
2019-02-17T00:58:19.018Z,33.57
2019-02-17T01:00:48.219Z,33.70
2019-02-17T01:03:17.475Z,34.50
2019-02-17T01:05:47.229Z,36.67
2019-02-17T01:08:16.600Z,35.53
2019-02-17T01:10:45.782Z,33.57
2019-02-17T01:13:14.963Z,37.97
2019-02-17T01:15:44.170Z,37.87
2019-02-17T01:18:13.359Z,35.03
2019-02-17T01:20:42.538Z,37.63
2019-02-17T01:23:11.752Z,35.77
2019-02-17T01:25:40.934Z,33.43
2019-02-17T01:28:10.115Z,32.57
2019-02-17T01:30:39.312Z,34.47
2019-02-17T01:33:08.488Z,33.83
2019-02-17T01:35:37.667Z,32.30
2019-02-17T01:38:06.860Z,36.00
2019-02-17T01:40:36.046Z,34.27
2019-02-17T01:43:05.253Z,32.60
2019-02-17T01:45:34.432Z,32.67
2019-02-17T01:48:03.618Z,32.83
2019-02-17T01:50:32.825Z,33.33
2019-02-17T01:53:02.005Z,31.97
2019-02-17T01:55:31.185Z,30.60
2019-02-17T01:58:00.405Z,36.10
2019-02-17T02:00:29.590Z,35.90
2019-02-17T02:02:58.825Z,33.40
2019-02-17T02:05:28.393Z,35.87
2019-02-17T02:07:57.574Z,34.43
2019-02-17T02:10:26.771Z,36.83
2019-02-17T02:12:55.990Z,33.63
2019-02-17T02:15:25.251Z,37.67
2019-02-17T02:17:54.428Z,34.87
2019-02-17T02:20:23.644Z,34.13
2019-02-17T02:22:52.894Z,33.77
2019-02-17T02:25:22.085Z,34.97
2019-02-17T02:27:51.287Z,34.20
2019-02-17T02:30:20.466Z,35.03
2019-02-17T02:32:49.645Z,31.93
2019-02-17T02:35:18.871Z,33.23
2019-02-17T02:37:48.026Z,32.30
2019-02-17T02:40:17.202Z,37.87
2019-02-17T02:42:46.400Z,38.57
2019-02-17T02:45:15.589Z,34.10
2019-02-17T02:47:44.761Z,36.17
2019-02-17T02:50:13.966Z,33.80
2019-02-17T02:52:43.147Z,36.30
2019-02-17T02:55:12.320Z,38.27
2019-02-17T02:57:41.536Z,37.40
2019-02-17T03:00:11.961Z,34.83
2019-02-17T03:02:41.134Z,32.30
2019-02-17T03:05:10.512Z,37.17
2019-02-17T03:07:39.704Z,38.70
2019-02-17T03:10:09.731Z,40.23
2019-02-17T03:12:38.932Z,36.50
2019-02-17T03:15:09.315Z,38.40
2019-02-17T03:17:38.522Z,38.63
2019-02-17T03:20:09.776Z,36.30
2019-02-17T03:22:38.953Z,36.90
2019-02-17T03:25:08.274Z,37.90
2019-02-17T03:27:37.481Z,36.57
2019-02-17T03:30:09.495Z,37.03
2019-02-17T03:32:38.694Z,36.83
2019-02-17T03:35:08.530Z,37.70
2019-02-17T03:37:37.746Z,38.50
2019-02-17T03:40:08.877Z,37.53
2019-02-17T03:42:38.075Z,38.77
2019-02-17T03:45:09.884Z,35.70
2019-02-17T03:47:39.092Z,36.77
2019-02-17T03:50:08.915Z,37.90
2019-02-17T03:52:38.110Z,37.03
2019-02-17T03:55:07.306Z,33.33
2019-02-17T03:57:36.477Z,38.43
2019-02-17T04:00:16.411Z,39.30
2019-02-17T04:02:38.401Z,35.10
2019-02-17T04:05:08.606Z,39.40
2019-02-17T04:07:37.808Z,36.77
2019-02-17T04:10:07.660Z,36.30
2019-02-17T04:12:36.876Z,36.93
2019-02-17T04:15:07.190Z,35.30
2019-02-17T04:17:36.284Z,34.77
2019-02-17T04:20:06.935Z,33.07
2019-02-17T04:22:36.113Z,36.23
2019-02-17T04:25:06.734Z,34.20
2019-02-17T04:27:35.950Z,36.77
2019-02-17T04:30:06.169Z,38.07
2019-02-17T04:32:35.338Z,35.10
2019-02-17T04:35:05.408Z,35.20
2019-02-17T04:37:34.603Z,37.50
2019-02-17T04:40:04.607Z,37.50
2019-02-17T04:42:33.791Z,34.63
2019-02-17T04:45:03.044Z,35.83
2019-02-17T04:47:32.231Z,33.23
2019-02-17T04:50:01.439Z,37.20
2019-02-17T04:52:30.633Z,35.37
2019-02-17T04:55:00.534Z,37.20
2019-02-17T04:57:29.735Z,35.10
2019-02-17T04:59:58.938Z,39.20
2019-02-17T05:02:28.129Z,36.07
2019-02-17T05:04:57.329Z,36.80
2019-02-17T05:07:26.524Z,38.13
2019-02-17T05:09:55.715Z,37.27
2019-02-17T05:12:24.921Z,39.60
2019-02-17T05:14:54.103Z,37.57
2019-02-17T05:17:23.291Z,38.57
2019-02-17T05:19:52.488Z,34.20
2019-02-17T05:22:21.682Z,35.30
2019-02-17T05:24:50.951Z,39.93
2019-02-17T05:27:20.155Z,40.27
2019-02-17T05:29:49.329Z,36.77
2019-02-17T05:32:18.512Z,38.40
2019-02-17T05:34:47.715Z,39.70
2019-02-17T05:37:16.895Z,35.47
2019-02-17T05:39:46.067Z,35.93
2019-02-17T05:42:15.276Z,39.40
2019-02-17T05:44:44.450Z,35.33
2019-02-17T05:47:13.629Z,35.90
2019-02-17T05:49:42.835Z,36.57
2019-02-17T05:52:12.023Z,39.30
2019-02-17T05:54:41.416Z,34.60
2019-02-17T05:57:10.626Z,36.03
2019-02-17T05:59:39.814Z,37.70
2019-02-17T06:02:09.102Z,39.40
2019-02-17T06:04:38.256Z,37.63
2019-02-17T06:07:07.430Z,33.93
2019-02-17T06:09:36.607Z,35.50
2019-02-17T06:12:09.427Z,35.60
2019-02-17T06:14:36.716Z,38.13
2019-02-17T06:17:05.886Z,36.33
2019-02-17T06:19:35.077Z,34.40
2019-02-17T06:22:04.274Z,35.30
2019-02-17T06:24:34.221Z,33.47
2019-02-17T06:27:03.421Z,32.77
2019-02-17T06:29:32.605Z,33.27
2019-02-17T06:32:01.803Z,33.93
2019-02-17T06:34:30.907Z,39.40
2019-02-17T06:37:00.088Z,36.93
2019-02-17T06:39:29.275Z,34.05
2019-02-17T06:41:58.481Z,37.13
2019-02-17T06:44:27.658Z,41.03
2019-02-17T06:46:57.798Z,36.47
2019-02-17T06:49:27.043Z,38.43
2019-02-17T06:51:56.218Z,39.10
2019-02-17T06:54:25.477Z,36.33
2019-02-17T06:56:56.260Z,37.23
2019-02-17T06:59:25.455Z,36.25
2019-02-17T07:01:54.649Z,38.17
2019-02-17T07:04:25.509Z,38.25
2019-02-17T07:06:56.336Z,33.15
2019-02-17T07:09:25.494Z,36.48
2019-02-17T07:11:56.809Z,34.60
2019-02-17T07:14:25.595Z,42.50
2019-02-17T07:16:54.788Z,32.10
2019-02-17T07:19:24.008Z,37.08
2019-02-17T07:21:53.197Z,41.80
2019-02-17T07:24:22.394Z,34.83
2019-02-17T07:26:51.622Z,35.83
2019-02-17T07:29:20.810Z,36.38
2019-02-17T07:31:50.002Z,31.50
2019-02-17T07:34:19.206Z,33.35
2019-02-17T07:36:48.395Z,33.10
2019-02-17T07:39:17.590Z,36.00
2019-02-17T07:41:46.793Z,34.65
2019-02-17T07:44:15.985Z,34.23
2019-02-17T07:46:45.169Z,35.48
2019-02-17T07:49:14.406Z,32.97
2019-02-17T07:51:43.592Z,30.90
2019-02-17T07:54:12.781Z,36.47
2019-02-17T07:56:42.096Z,33.87
2019-02-17T07:59:11.275Z,33.73
2019-02-17T08:01:45.296Z,32.53
2019-02-17T08:04:11.365Z,33.73
2019-02-17T08:06:40.531Z,32.93
2019-02-17T08:09:09.668Z,35.70
2019-02-17T08:11:38.844Z,32.23
2019-02-17T08:14:08.028Z,36.33
2019-02-17T08:16:37.462Z,29.77
2019-02-17T08:19:06.658Z,35.20
2019-02-17T08:21:35.830Z,32.60
2019-02-17T08:24:05.086Z,36.40
2019-02-17T08:26:34.275Z,34.80
2019-02-17T08:29:03.453Z,33.90
2019-02-17T08:31:32.732Z,31.60
2019-02-17T08:34:01.834Z,30.53
2019-02-17T08:36:31.014Z,34.83
2019-02-17T08:39:00.272Z,37.57
2019-02-17T08:41:29.464Z,33.33
2019-02-17T08:44:00.856Z,30.90
2019-02-17T08:46:29.515Z,34.70
2019-02-17T08:48:58.653Z,31.03
2019-02-17T08:51:27.843Z,33.53
2019-02-17T08:53:57.196Z,34.87
2019-02-17T08:56:26.436Z,32.47
2019-02-17T08:58:55.624Z,31.00
2019-02-17T09:01:24.829Z,29.00
2019-02-17T09:03:54.012Z,30.90
2019-02-17T09:06:23.197Z,29.97
2019-02-17T09:08:52.416Z,30.33
2019-02-17T09:11:21.597Z,28.63
2019-02-17T09:13:50.782Z,25.37
2019-02-17T09:16:19.999Z,27.93
2019-02-17T09:18:49.193Z,29.37
2019-02-17T09:21:18.395Z,27.40
2019-02-17T09:23:47.605Z,26.70
2019-02-17T09:26:16.793Z,29.23
2019-02-17T09:28:45.987Z,33.53
2019-02-17T09:31:15.191Z,28.27
2019-02-17T09:33:44.382Z,30.87
2019-02-17T09:36:13.565Z,26.43
2019-02-17T09:38:42.700Z,33.30
2019-02-17T09:41:11.898Z,30.83
2019-02-17T09:43:41.090Z,23.80
2019-02-17T09:46:10.293Z,27.90
2019-02-17T09:48:39.479Z,28.67
2019-02-17T09:51:08.679Z,32.43
2019-02-17T09:53:37.874Z,32.43
2019-02-17T09:56:07.070Z,28.37
2019-02-17T09:58:36.273Z,33.70
2019-02-17T10:01:05.454Z,27.23
2019-02-17T10:03:34.638Z,27.77
2019-02-17T10:06:03.899Z,26.23
2019-02-17T10:08:33.117Z,30.33
2019-02-17T10:11:02.296Z,28.20
2019-02-17T10:13:31.615Z,26.73
2019-02-17T10:16:00.795Z,25.30
2019-02-17T10:18:30.072Z,28.30
2019-02-17T10:20:59.321Z,27.53
2019-02-17T10:23:28.479Z,29.77
2019-02-17T10:25:57.665Z,31.27
2019-02-17T10:28:26.881Z,29.97
2019-02-17T10:30:56.081Z,29.07
2019-02-17T10:33:25.267Z,32.67
2019-02-17T10:35:54.490Z,28.27
2019-02-17T10:38:23.667Z,29.13
2019-02-17T10:40:52.879Z,31.50
2019-02-17T10:43:22.092Z,33.47
2019-02-17T10:45:51.274Z,30.00
2019-02-17T10:48:20.434Z,31.77
2019-02-17T10:50:49.668Z,26.00
2019-02-17T10:53:18.865Z,35.50
2019-02-17T10:55:48.047Z,28.40
2019-02-17T10:58:17.257Z,30.93
2019-02-17T11:00:46.453Z,32.97
2019-02-17T11:03:15.636Z,35.03
2019-02-17T11:05:44.853Z,32.83
2019-02-17T11:08:14.061Z,29.83
2019-02-17T11:10:43.283Z,30.23
2019-02-17T11:13:12.469Z,34.60
2019-02-17T11:15:41.669Z,31.50
2019-02-17T11:18:10.871Z,33.37
2019-02-17T11:20:40.044Z,32.50
2019-02-17T11:23:09.241Z,31.60
2019-02-17T11:25:38.439Z,31.17
2019-02-17T11:28:07.630Z,35.13
2019-02-17T11:30:36.843Z,32.90
2019-02-17T11:33:06.025Z,33.30
2019-02-17T11:35:35.216Z,30.53
2019-02-17T11:38:04.404Z,33.97
2019-02-17T11:40:33.617Z,31.57
2019-02-17T11:43:02.834Z,33.43
2019-02-17T11:45:32.153Z,35.77
2019-02-17T11:48:01.337Z,34.53
2019-02-17T11:50:30.560Z,34.53
2019-02-17T11:52:59.753Z,34.57
2019-02-17T11:55:28.950Z,36.83
2019-02-17T11:57:58.175Z,34.87
2019-02-17T12:00:27.367Z,36.37
2019-02-17T12:02:56.569Z,34.43
2019-02-17T12:05:25.759Z,33.07
2019-02-17T12:07:54.962Z,32.37
2019-02-17T12:10:24.156Z,33.67
2019-02-17T12:12:53.699Z,35.30
2019-02-17T12:15:22.969Z,33.57
2019-02-17T12:17:52.165Z,35.37
2019-02-17T12:20:38.428Z,32.90
2019-02-17T12:23:09.273Z,33.60
2019-02-17T12:25:40.090Z,34.63
2019-02-17T12:28:16.679Z,34.47
2019-02-17T12:30:47.506Z,31.27
2019-02-17T12:33:20.596Z,34.57
2019-02-17T12:35:47.614Z,33.10
2019-02-17T12:38:16.799Z,35.83
2019-02-17T12:40:45.990Z,33.13
2019-02-17T12:43:15.188Z,34.73
2019-02-17T12:45:44.367Z,31.53
2019-02-17T12:48:13.552Z,32.37
2019-02-17T12:50:42.764Z,32.40
2019-02-17T12:53:12.023Z,29.57
2019-02-17T12:55:41.206Z,30.83
2019-02-17T12:58:10.416Z,34.63
2019-02-17T13:00:57.638Z,32.87
2019-02-17T13:03:28.768Z,30.70
2019-02-17T13:05:57.746Z,32.83
2019-02-17T13:08:26.970Z,30.93
2019-02-17T13:10:56.167Z,28.83
2019-02-17T13:13:25.360Z,30.03
2019-02-17T13:15:54.562Z,31.43
2019-02-17T13:18:23.743Z,31.57
2019-02-17T13:20:52.942Z,25.80
2019-02-17T13:23:22.138Z,31.60
2019-02-17T13:25:51.259Z,27.83
2019-02-17T13:28:20.481Z,30.30
2019-02-17T13:30:49.729Z,30.73
2019-02-17T13:33:18.915Z,27.33
2019-02-17T13:35:48.129Z,32.47
2019-02-17T13:38:17.306Z,31.17
2019-02-17T13:40:46.508Z,28.20
2019-02-17T13:43:15.728Z,26.97
2019-02-17T13:45:45.003Z,24.37
2019-02-17T13:48:14.176Z,26.23
2019-02-17T13:50:43.376Z,24.53
2019-02-17T13:53:12.567Z,27.83
2019-02-17T13:55:41.849Z,26.20
2019-02-17T13:58:11.052Z,28.77
2019-02-17T14:00:40.282Z,26.73
2019-02-17T14:03:09.486Z,24.43
2019-02-17T14:05:38.665Z,25.30
2019-02-17T14:08:07.880Z,28.03
2019-02-17T14:10:37.058Z,23.57
2019-02-17T14:13:06.255Z,25.10
2019-02-17T14:15:35.457Z,21.43
2019-02-17T14:18:04.647Z,23.17
2019-02-17T14:20:33.840Z,19.60
2019-02-17T14:23:03.038Z,20.33
2019-02-17T14:25:32.230Z,20.87
2019-02-17T14:28:01.426Z,21.23
2019-02-17T14:30:30.641Z,19.40
2019-02-17T14:32:59.805Z,19.30
2019-02-17T14:35:28.987Z,19.53
2019-02-17T14:37:58.199Z,19.77
2019-02-17T14:40:27.384Z,22.97
2019-02-17T14:42:56.571Z,23.37
2019-02-17T14:45:25.794Z,20.50
2019-02-17T14:47:54.965Z,23.37
2019-02-17T14:50:24.214Z,26.20
2019-02-17T14:52:53.413Z,21.23
2019-02-17T14:55:22.609Z,21.63
2019-02-17T14:57:51.803Z,23.87
2019-02-17T15:00:20.980Z,23.83
2019-02-17T15:02:50.259Z,23.80
2019-02-17T15:05:19.472Z,24.50
2019-02-17T15:07:48.661Z,23.23
2019-02-17T15:10:17.866Z,28.03
2019-02-17T15:12:47.110Z,23.80
2019-02-17T15:15:16.943Z,25.37
2019-02-17T15:17:46.141Z,24.80
2019-02-17T15:20:18.222Z,23.17
2019-02-17T15:22:47.389Z,21.97
2019-02-17T15:25:16.583Z,25.20
2019-02-17T15:27:45.799Z,25.63
2019-02-17T15:30:17.890Z,24.87
2019-02-17T15:32:47.434Z,25.57
2019-02-17T15:35:16.618Z,25.23
2019-02-17T15:37:45.821Z,27.27
2019-02-17T15:40:15.659Z,26.97
2019-02-17T15:42:44.859Z,24.83
2019-02-17T15:45:14.783Z,22.93
2019-02-17T15:47:43.986Z,22.90
2019-02-17T15:50:14.438Z,22.97
2019-02-17T15:52:43.638Z,21.90
2019-02-17T15:55:14.057Z,22.93
2019-02-17T15:57:43.437Z,25.80
2019-02-17T16:00:15.150Z,23.23
2019-02-17T16:02:44.419Z,22.67
2019-02-17T16:05:13.681Z,22.27
2019-02-17T16:07:42.869Z,22.10
2019-02-17T16:10:14.459Z,24.97
2019-02-17T16:12:43.966Z,22.87
2019-02-17T16:15:16.277Z,22.43
2019-02-17T16:17:45.457Z,20.00
2019-02-17T16:20:14.934Z,25.73
2019-02-17T16:22:44.122Z,24.73
2019-02-17T16:25:13.665Z,20.30
2019-02-17T16:27:42.853Z,23.07
2019-02-17T16:30:16.841Z,21.23
2019-02-17T16:32:46.049Z,20.17
2019-02-17T16:35:15.248Z,20.13
2019-02-17T16:37:44.440Z,20.07
2019-02-17T16:40:15.261Z,16.00
2019-02-17T16:42:44.514Z,22.00
2019-02-17T16:45:14.640Z,19.50
2019-02-17T16:47:44.686Z,19.47
2019-02-17T16:50:21.787Z,21.97
2019-02-17T16:52:51.002Z,20.00
2019-02-17T16:55:20.194Z,20.53
2019-02-17T16:57:49.379Z,23.27
2019-02-17T17:00:23.144Z,20.50
2019-02-17T17:02:56.938Z,22.10
2019-02-17T17:05:26.315Z,18.37
2019-02-17T17:07:55.504Z,22.57
2019-02-17T17:10:24.767Z,20.03
2019-02-17T17:12:54.007Z,24.10
2019-02-17T17:15:23.199Z,21.50
2019-02-17T17:17:52.386Z,23.47
2019-02-17T17:20:22.635Z,21.33
2019-02-17T17:22:51.817Z,20.73
2019-02-17T17:25:21.008Z,22.17
2019-02-17T17:27:50.289Z,19.37
2019-02-17T17:30:19.941Z,20.70
2019-02-17T17:32:49.127Z,18.03
2019-02-17T17:35:18.336Z,18.63
2019-02-17T17:37:47.520Z,17.93
2019-02-17T17:40:17.880Z,18.93
2019-02-17T17:42:47.091Z,21.53
2019-02-17T17:45:20.910Z,19.57
2019-02-17T17:47:50.095Z,20.23
2019-02-17T17:50:19.353Z,15.60
2019-02-17T17:52:48.552Z,21.87
2019-02-17T17:55:17.804Z,15.33
2019-02-17T17:57:47.003Z,16.40
2019-02-17T18:00:21.390Z,15.97
2019-02-17T18:02:50.591Z,16.53
2019-02-17T18:05:19.758Z,15.20
2019-02-17T18:07:48.945Z,16.90
2019-02-17T18:10:18.156Z,15.87
2019-02-17T18:12:47.385Z,17.27
2019-02-17T18:15:18.426Z,19.67
2019-02-17T18:17:54.334Z,18.70
2019-02-17T18:20:18.574Z,15.67
2019-02-17T18:22:47.759Z,16.17
2019-02-17T18:25:16.963Z,16.23
2019-02-17T18:27:46.160Z,15.50
2019-02-17T18:30:21.583Z,14.87
2019-02-17T18:32:50.805Z,16.63
2019-02-17T18:35:20.736Z,13.83
2019-02-17T18:37:50.160Z,16.00
2019-02-17T18:40:20.226Z,19.43
2019-02-17T18:42:49.556Z,14.73
2019-02-17T18:45:18.752Z,16.97
2019-02-17T18:47:48.032Z,18.33
2019-02-17T18:50:18.619Z,16.80
2019-02-17T18:52:48.046Z,16.57
2019-02-17T18:55:17.378Z,13.87
2019-02-17T18:57:50.859Z,16.20
2019-02-17T19:00:25.404Z,18.27
2019-02-17T19:02:54.653Z,16.33
2019-02-17T19:05:31.576Z,16.17
2019-02-17T19:07:55.579Z,14.30
2019-02-17T19:10:24.849Z,16.20
2019-02-17T19:12:54.104Z,16.90
2019-02-17T19:15:23.325Z,16.30
2019-02-17T19:17:52.503Z,15.87
2019-02-17T19:20:27.404Z,16.23
2019-02-17T19:22:56.577Z,17.00
2019-02-17T19:25:25.765Z,15.93
2019-02-17T19:27:55.133Z,14.97
2019-02-17T19:30:27.283Z,13.40
2019-02-17T19:32:56.475Z,12.73
2019-02-17T19:35:25.944Z,16.10
2019-02-17T19:37:55.137Z,16.40
2019-02-17T19:40:24.329Z,12.83
2019-02-17T19:42:53.552Z,15.53
2019-02-17T19:45:22.743Z,14.80
2019-02-17T19:47:51.946Z,16.10
2019-02-17T19:50:21.232Z,18.20
2019-02-17T19:52:50.528Z,15.87
2019-02-17T19:55:19.731Z,14.93
2019-02-17T19:57:49.169Z,15.40
2019-02-17T20:00:20.299Z,19.47
2019-02-17T20:03:18.657Z,14.43
2019-02-17T20:05:52.534Z,15.67
2019-02-17T20:08:21.713Z,16.43
2019-02-17T20:10:50.926Z,15.10
2019-02-17T20:13:20.119Z,17.70
2019-02-17T20:15:49.307Z,15.17
2019-02-17T20:18:18.533Z,15.33
2019-02-17T20:20:47.723Z,15.87
2019-02-17T20:23:16.994Z,16.57
2019-02-17T20:25:46.199Z,15.47
2019-02-17T20:28:15.384Z,16.00
2019-02-17T20:30:44.578Z,16.67
2019-02-17T20:33:13.780Z,15.50
2019-02-17T20:35:42.980Z,17.17
2019-02-17T20:38:12.172Z,15.83
2019-02-17T20:40:41.367Z,17.37
2019-02-17T20:43:10.578Z,12.77
2019-02-17T20:45:39.780Z,16.83
2019-02-17T20:48:08.973Z,14.47
2019-02-17T20:50:38.255Z,16.43
2019-02-17T20:53:07.451Z,15.00
2019-02-17T20:55:36.630Z,16.20
2019-02-17T20:58:05.835Z,14.80
2019-02-17T21:00:35.034Z,17.33
2019-02-17T21:03:04.301Z,18.30
2019-02-17T21:05:33.508Z,17.77
2019-02-17T21:08:02.689Z,13.33
2019-02-17T21:10:32.142Z,17.13
2019-02-17T21:13:01.353Z,15.13
2019-02-17T21:15:30.529Z,15.40
2019-02-17T21:17:59.747Z,16.77
2019-02-17T21:20:29.015Z,15.23
2019-02-17T21:22:58.207Z,19.30
2019-02-17T21:25:27.397Z,18.07
2019-02-17T21:27:56.616Z,18.73
2019-02-17T21:30:25.836Z,16.03
2019-02-17T21:32:55.015Z,20.13
2019-02-17T21:35:24.209Z,16.57
2019-02-17T21:37:53.398Z,14.77
2019-02-17T21:40:22.583Z,17.87
2019-02-17T21:42:51.801Z,16.03
2019-02-17T21:45:21.013Z,16.33
2019-02-17T21:47:50.284Z,20.50
2019-02-17T21:50:19.485Z,15.73
2019-02-17T21:52:48.676Z,18.13
2019-02-17T21:55:17.915Z,16.77
2019-02-17T21:57:47.094Z,19.43
2019-02-17T22:00:19.763Z,20.60
2019-02-17T22:02:49.488Z,16.37
2019-02-17T22:05:19.644Z,15.13
2019-02-17T22:07:48.835Z,17.53
2019-02-17T22:10:19.372Z,15.77
2019-02-17T22:12:51.109Z,17.90
2019-02-17T22:15:21.818Z,16.60
2019-02-17T22:17:51.053Z,18.97
2019-02-17T22:20:20.243Z,16.87
2019-02-17T22:22:49.437Z,21.63
2019-02-17T22:25:20.451Z,19.13
2019-02-17T22:27:49.646Z,18.33
2019-02-17T22:30:18.826Z,18.80
2019-02-17T22:32:48.041Z,20.90
2019-02-17T22:35:17.222Z,19.07
2019-02-17T22:37:46.421Z,16.53
2019-02-17T22:40:16.084Z,18.73
2019-02-17T22:42:45.320Z,19.40
2019-02-17T22:45:14.699Z,21.07
2019-02-17T22:47:43.968Z,19.57
2019-02-17T22:50:16.261Z,21.03
2019-02-17T22:52:45.638Z,21.60
2019-02-17T22:55:15.278Z,22.70
2019-02-17T22:57:44.462Z,20.70
2019-02-17T23:00:52.797Z,18.50
2019-02-17T23:03:22.219Z,17.60
2019-02-17T23:05:51.409Z,17.00
2019-02-17T23:08:20.614Z,16.03
2019-02-17T23:10:49.802Z,16.43
2019-02-17T23:13:19.002Z,18.07
2019-02-17T23:15:48.226Z,20.73
2019-02-17T23:18:17.410Z,23.27
2019-02-17T23:20:46.594Z,24.50
2019-02-17T23:23:15.816Z,23.60
2019-02-17T23:25:45.000Z,22.30
2019-02-17T23:28:14.183Z,21.37
2019-02-17T23:30:43.383Z,18.07
2019-02-17T23:33:12.563Z,17.33
2019-02-17T23:35:41.805Z,19.40
2019-02-17T23:38:10.976Z,18.87
2019-02-17T23:40:40.174Z,17.43
2019-02-17T23:43:09.362Z,20.17
2019-02-17T23:45:38.621Z,19.53
2019-02-17T23:48:07.885Z,19.87
2019-02-17T23:50:37.079Z,18.57
2019-02-17T23:53:06.251Z,17.77
2019-02-17T23:55:35.435Z,19.30
2019-02-17T23:58:04.739Z,19.43
